Hlavní strana
METAR-TAF:

METAR-TAF

Letiště :

Cordele, Georgie, Spojené státy americké

zeměpisná šířka: 31-59-20N, zeměpisná délka: 083-46-26W, výška: 94 m

Aktuální stav počasí

Zpráva byla vytvořena před 23 minutami, v 11:35 UTC
Bezvětří
Teplota 22°C
Vlhkost vzduchu 88%
Tlak 1022 hPa
Viditelnost: 16.1 km
Jasno

METAR: KCKF 261135Z AUTO 00000KT 10SM CLR 22/20 A3017 RMK AO2 T02220196

Čas: 07:58 (11:58 UTC)


TAF: chybějící

Stav a předpovědi počasí z více než 4 000 letišť (zprávy METAR a TAF).

Červené a žluté tečky na mapě představují dostupné meteorologické stanice.

Když kurzor umístíte na tečku, zobrazí se název stanice.

Pak kliknutím zobrazíte stav a předpověď počasí.

Chcete-li změnit mapu, kliknutím na zelené tlačítko se znaménkem +mapu přiblížíte, kliknutím na zelené tlačítko se znaménkem – mapu oddálíte a kliknutím na zelené šipky přejdete na sousední mapy.


METAR-TAF: